URSS 181030Z 12005MPS 9999 NSC 26/09 Q1004 WS ALL RWY R02/010070 R06/////// NOSIG RMK R06/13006G09MPS QFE751
QNH:(hPa/inHg/mmHg)1004 / 29.65 / 753
QFE:(hPa/inHg/mmHg)1001 / 29.55 / 751
Temperature26
Dew Point9
Visibility> 10000
Weather
Cloud Cover
Transition Altitude13000 ft.
Transition LevelFL150
SQUAWK